createdAt,value
2023-08-29T08:19:23.322Z,2.80
2023-08-29T08:21:53.622Z,2.50
2023-08-29T08:24:25.967Z,2.90
2023-08-29T08:26:56.337Z,2.50
2023-08-29T08:29:25.745Z,2.90
2023-08-29T08:31:55.287Z,2.50
2023-08-29T08:34:24.440Z,2.60
2023-08-29T08:36:54.538Z,2.70
2023-08-29T08:39:24.147Z,2.80
2023-08-29T08:41:54.624Z,2.40
2023-08-29T08:44:25.549Z,2.60
2023-08-29T08:46:55.645Z,2.50
2023-08-29T08:49:26.232Z,2.50
2023-08-29T08:51:57.575Z,2.50
2023-08-29T08:54:27.992Z,2.50
2023-08-29T08:56:59.874Z,2.40
2023-08-29T08:59:29.415Z,2.40
2023-08-29T09:01:58.935Z,2.40
2023-08-29T09:04:28.763Z,2.50
2023-08-29T09:06:57.841Z,2.40
2023-08-29T09:09:27.596Z,2.60
2023-08-29T09:11:58.840Z,2.40
2023-08-29T09:14:28.885Z,2.30
2023-08-29T09:17:00.609Z,2.80
2023-08-29T09:19:37.016Z,1.90
2023-08-29T09:22:07.711Z,2.50
2023-08-29T09:24:38.170Z,1.90
2023-08-29T09:27:13.412Z,2.30
2023-08-29T09:29:43.383Z,2.10
2023-08-29T09:32:17.912Z,2.00
2023-08-29T09:34:48.786Z,1.80
2023-08-29T09:37:18.411Z,2.10
2023-08-29T09:39:49.656Z,2.00
2023-08-29T09:42:21.208Z,2.30
2023-08-29T09:44:54.403Z,2.10
2023-08-29T09:47:28.913Z,2.50
2023-08-29T09:49:58.961Z,2.40
2023-08-29T09:52:31.221Z,2.00
2023-08-29T09:55:04.833Z,1.90
2023-08-29T09:57:37.474Z,2.10
2023-08-29T10:00:10.800Z,1.80
2023-08-29T10:02:42.187Z,2.00
2023-08-29T10:05:14.357Z,2.10
2023-08-29T10:07:47.186Z,1.90
2023-08-29T10:10:17.522Z,1.70
2023-08-29T10:12:49.766Z,2.00
2023-08-29T10:15:20.030Z,2.20
2023-08-29T10:17:50.653Z,1.60
2023-08-29T10:20:22.890Z,1.80
2023-08-29T10:22:53.688Z,2.10
2023-08-29T10:25:23.729Z,1.80
2023-08-29T10:27:53.302Z,1.90
2023-08-29T10:30:28.292Z,1.80
2023-08-29T10:32:58.641Z,2.20
2023-08-29T10:35:33.317Z,1.60
2023-08-29T10:38:04.021Z,1.60
2023-08-29T10:40:37.597Z,1.70
2023-08-29T10:43:19.848Z,1.50
2023-08-29T10:46:01.745Z,1.50
2023-08-29T10:48:31.882Z,1.50
2023-08-29T10:51:10.827Z,1.50
2023-08-29T10:53:49.336Z,1.50
2023-08-29T10:56:20.046Z,1.60
2023-08-29T10:58:50.040Z,1.50
2023-08-29T11:01:29.650Z,1.50
2023-08-29T11:04:01.789Z,1.40
2023-08-29T11:06:54.160Z,1.50
2023-08-29T11:09:24.904Z,1.40
2023-08-29T11:12:08.523Z,1.30
2023-08-29T11:14:54.020Z,1.30
2023-08-29T11:17:27.686Z,1.00
2023-08-29T11:19:59.513Z,2.80
2023-08-29T11:22:33.256Z,1.10
2023-08-29T11:25:03.445Z,1.40
2023-08-29T11:27:41.017Z,1.20
2023-08-29T11:30:22.533Z,1.10
2023-08-29T11:33:00.772Z,1.00
2023-08-29T11:35:30.579Z,1.10
2023-08-29T11:38:00.676Z,1.10
2023-08-29T11:40:42.089Z,1.10
2023-08-29T11:43:45.262Z,1.20
2023-08-29T11:46:10.871Z,1.10
2023-08-29T11:48:41.038Z,1.00
2023-08-29T11:51:12.394Z,1.10
2023-08-29T11:53:42.130Z,1.20
2023-08-29T11:56:13.584Z,1.10
2023-08-29T11:58:45.809Z,1.30
2023-08-29T12:01:18.239Z,1.20
2023-08-29T12:03:49.285Z,1.60
2023-08-29T12:06:20.658Z,4.80
2023-08-29T12:08:52.639Z,2.40
2023-08-29T12:11:23.625Z,1.70
2023-08-29T12:14:07.328Z,2.30
2023-08-29T12:16:39.575Z,1.80
2023-08-29T12:19:16.988Z,1.80
2023-08-29T12:21:59.259Z,1.70
2023-08-29T12:24:30.227Z,1.50
2023-08-29T12:27:03.103Z,1.20
2023-08-29T12:29:35.059Z,1.20
2023-08-29T12:32:05.022Z,1.20
2023-08-29T12:34:34.742Z,1.40
2023-08-29T12:37:05.202Z,1.20
2023-08-29T12:39:36.858Z,1.20
2023-08-29T12:42:18.923Z,1.00
2023-08-29T12:46:00.078Z,1.10
2023-08-29T12:48:30.990Z,1.10
2023-08-29T12:51:00.786Z,0.90
2023-08-29T12:53:32.456Z,1.00
2023-08-29T12:56:02.031Z,0.70
2023-08-29T12:58:31.307Z,0.90
2023-08-29T13:01:00.697Z,0.80
2023-08-29T13:03:30.030Z,0.90
2023-08-29T13:05:59.694Z,0.70
2023-08-29T13:08:29.015Z,0.60
2023-08-29T13:10:58.572Z,0.60
2023-08-29T13:13:28.845Z,0.60
2023-08-29T13:15:58.506Z,0.60
2023-08-29T13:18:28.874Z,0.70
2023-08-29T13:20:59.530Z,0.70
2023-08-29T13:23:29.368Z,0.70
2023-08-29T13:25:59.014Z,0.70
2023-08-29T13:28:28.992Z,1.20
2023-08-29T13:31:02.884Z,0.50
2023-08-29T13:33:37.495Z,0.60
2023-08-29T13:36:08.420Z,0.80
2023-08-29T13:38:38.192Z,0.60
2023-08-29T13:41:09.464Z,0.50
2023-08-29T13:43:39.971Z,0.40
2023-08-29T13:46:10.921Z,1.30
2023-08-29T13:48:41.375Z,3.90
2023-08-29T13:51:11.214Z,1.10
2023-08-29T13:53:40.438Z,0.50
2023-08-29T13:56:10.379Z,0.60
2023-08-29T13:58:39.895Z,0.70
2023-08-29T14:01:11.416Z,0.50
2023-08-29T14:03:42.453Z,0.50
2023-08-29T14:06:14.373Z,0.60
2023-08-29T14:08:45.350Z,0.70
2023-08-29T14:11:15.195Z,0.60
2023-08-29T14:13:45.276Z,0.80
2023-08-29T14:16:15.598Z,0.70
2023-08-29T14:18:47.452Z,0.80
2023-08-29T14:21:19.509Z,0.60
2023-08-29T14:23:48.714Z,0.60
2023-08-29T14:26:18.581Z,0.60
2023-08-29T14:28:48.088Z,0.50
2023-08-29T14:31:26.511Z,0.70
2023-08-29T14:33:56.520Z,0.50
2023-08-29T14:36:26.524Z,0.50
2023-08-29T14:38:57.953Z,0.50
2023-08-29T14:41:28.684Z,0.50
2023-08-29T14:43:58.159Z,0.60
2023-08-29T14:46:27.461Z,0.70
2023-08-29T14:48:57.671Z,0.50
2023-08-29T14:51:27.856Z,0.70
2023-08-29T14:53:58.565Z,0.50
2023-08-29T14:56:28.453Z,0.50
2023-08-29T14:58:58.747Z,0.60
2023-08-29T15:01:28.609Z,0.50
2023-08-29T15:03:57.851Z,0.60
2023-08-29T15:06:27.873Z,0.70
2023-08-29T15:08:57.787Z,0.50
2023-08-29T15:11:27.136Z,0.60
2023-08-29T15:13:57.337Z,1.10
2023-08-29T15:16:26.524Z,0.60
2023-08-29T15:18:56.488Z,0.60
2023-08-29T15:21:26.474Z,0.50
2023-08-29T15:23:56.014Z,0.60
2023-08-29T15:26:25.454Z,0.40
2023-08-29T15:28:55.210Z,0.60
2023-08-29T15:31:24.575Z,0.50
2023-08-29T15:33:53.973Z,0.60
2023-08-29T15:36:26.803Z,0.60
2023-08-29T15:38:56.093Z,0.60
2023-08-29T15:41:25.680Z,0.40
2023-08-29T15:43:54.999Z,0.70
2023-08-29T15:46:24.497Z,0.70
2023-08-29T15:48:53.782Z,0.70
2023-08-29T15:51:22.690Z,1.40
2023-08-29T15:53:53.618Z,0.70
2023-08-29T15:56:23.218Z,0.60
2023-08-29T15:58:52.953Z,0.50
2023-08-29T16:01:23.172Z,0.70
2023-08-29T16:03:53.713Z,0.40
2023-08-29T16:06:23.738Z,0.70
2023-08-29T16:08:53.767Z,0.50
2023-08-29T16:11:24.522Z,0.50
2023-08-29T16:13:55.820Z,0.70
2023-08-29T16:16:27.025Z,0.60
2023-08-29T16:18:57.433Z,0.60
2023-08-29T16:21:27.001Z,0.80
2023-08-29T16:23:57.447Z,0.90
2023-08-29T16:26:27.159Z,1.20
2023-08-29T16:28:57.672Z,1.10
2023-08-29T16:31:27.810Z,1.80
2023-08-29T16:33:57.709Z,1.00
2023-08-29T16:36:27.106Z,0.90
2023-08-29T16:38:56.656Z,0.70
2023-08-29T16:41:25.998Z,0.90
2023-08-29T16:43:58.424Z,0.90
2023-08-29T16:46:28.727Z,1.30
2023-08-29T16:48:58.065Z,1.00
2023-08-29T16:51:27.352Z,0.90
2023-08-29T16:53:56.395Z,1.10
2023-08-29T16:56:25.955Z,2.10
2023-08-29T16:58:55.347Z,6.30
2023-08-29T17:01:25.068Z,2.30
2023-08-29T17:03:56.138Z,1.30
2023-08-29T17:06:26.194Z,0.90
2023-08-29T17:08:57.182Z,0.80
2023-08-29T17:11:26.520Z,0.70
2023-08-29T17:13:56.114Z,0.60
2023-08-29T17:16:26.231Z,0.70
2023-08-29T17:18:57.740Z,0.50
2023-08-29T17:21:27.185Z,1.20
2023-08-29T17:23:56.937Z,0.90
2023-08-29T17:26:26.822Z,0.70
2023-08-29T17:28:57.402Z,0.70
2023-08-29T17:31:28.649Z,0.80
2023-08-29T17:33:58.161Z,0.80
2023-08-29T17:36:27.441Z,0.80
2023-08-29T17:38:56.671Z,1.40
2023-08-29T17:41:27.682Z,1.40
2023-08-29T17:43:57.668Z,1.00
2023-08-29T17:46:27.362Z,1.00
2023-08-29T17:48:57.615Z,1.00
2023-08-29T17:51:27.411Z,1.00
2023-08-29T17:53:57.153Z,1.80
2023-08-29T17:56:26.943Z,2.40
2023-08-29T17:58:56.991Z,1.50
2023-08-29T18:01:26.579Z,1.50
2023-08-29T18:03:57.931Z,1.00
2023-08-29T18:06:29.239Z,0.80
2023-08-29T18:08:59.821Z,1.00
2023-08-29T18:11:31.970Z,1.20
2023-08-29T18:14:03.216Z,1.00
2023-08-29T18:16:33.197Z,1.10
2023-08-29T18:19:04.174Z,0.80
2023-08-29T18:21:35.434Z,0.80
2023-08-29T18:24:08.214Z,0.90
2023-08-29T18:26:39.022Z,1.10
2023-08-29T18:29:09.038Z,2.40
2023-08-29T18:31:39.867Z,1.80
2023-08-29T18:34:10.436Z,2.20
2023-08-29T18:36:40.054Z,2.10
2023-08-29T18:39:10.454Z,2.00
2023-08-29T18:41:40.486Z,1.40
2023-08-29T18:44:10.476Z,2.10
2023-08-29T18:46:39.607Z,2.80
2023-08-29T18:49:09.877Z,2.70
2023-08-29T18:51:39.700Z,3.00
2023-08-29T18:54:09.720Z,2.70
2023-08-29T18:56:39.514Z,2.20
2023-08-29T18:59:09.253Z,2.30
2023-08-29T19:01:39.113Z,3.00
2023-08-29T19:04:09.054Z,1.80
2023-08-29T19:06:39.227Z,1.80
2023-08-29T19:09:09.552Z,4.90
2023-08-29T19:11:39.516Z,4.00
2023-08-29T19:14:09.448Z,2.10
2023-08-29T19:16:39.689Z,1.40
2023-08-29T19:19:13.867Z,1.60
2023-08-29T19:21:43.853Z,1.40
2023-08-29T19:24:14.383Z,1.40
2023-08-29T19:26:44.967Z,1.50
2023-08-29T19:29:17.894Z,1.40
2023-08-29T19:31:51.932Z,1.50
2023-08-29T19:34:23.696Z,1.40
2023-08-29T19:36:55.699Z,1.60
2023-08-29T19:39:26.688Z,1.50
2023-08-29T19:41:58.320Z,1.60
2023-08-29T19:44:29.999Z,1.70
2023-08-29T19:47:04.714Z,1.60
2023-08-29T19:49:40.895Z,1.80
2023-08-29T19:52:11.875Z,1.50
2023-08-29T19:54:42.324Z,1.80
2023-08-29T19:57:12.187Z,1.60
2023-08-29T19:59:42.410Z,1.70
2023-08-29T20:02:14.595Z,1.90
2023-08-29T20:04:46.308Z,1.70
2023-08-29T20:07:16.654Z,1.80
2023-08-29T20:09:46.718Z,1.80
2023-08-29T20:12:16.960Z,1.50
2023-08-29T20:14:46.780Z,1.70
2023-08-29T20:17:16.702Z,1.80
2023-08-29T20:19:46.368Z,1.80
2023-08-29T20:22:15.650Z,1.50
2023-08-29T20:24:46.655Z,1.60
2023-08-29T20:27:18.136Z,1.80
2023-08-29T20:29:52.753Z,1.70
2023-08-29T20:32:23.844Z,1.70
2023-08-29T20:34:55.097Z,1.60
2023-08-29T20:37:24.913Z,2.00
2023-08-29T20:39:54.580Z,1.50
2023-08-29T20:42:24.427Z,1.70
2023-08-29T20:44:56.273Z,1.80
2023-08-29T20:47:26.879Z,1.80
2023-08-29T20:49:56.578Z,1.50
2023-08-29T20:52:27.615Z,1.70
2023-08-29T20:54:57.396Z,2.00
2023-08-29T20:57:26.689Z,1.60
2023-08-29T20:59:56.363Z,1.80
2023-08-29T21:02:26.814Z,1.70
2023-08-29T21:04:56.114Z,1.70
2023-08-29T21:07:25.739Z,2.20
2023-08-29T21:09:55.426Z,1.90
2023-08-29T21:12:26.315Z,1.80
2023-08-29T21:14:55.765Z,1.60
2023-08-29T21:17:28.000Z,1.60
2023-08-29T21:19:57.827Z,1.60
2023-08-29T21:22:27.407Z,1.40
2023-08-29T21:24:56.677Z,1.50
2023-08-29T21:27:26.728Z,1.60
2023-08-29T21:29:56.117Z,1.60
2023-08-29T21:32:25.443Z,1.70
2023-08-29T21:34:54.575Z,1.60
2023-08-29T21:37:23.932Z,1.40
2023-08-29T21:39:53.427Z,1.90
2023-08-29T21:42:22.906Z,1.60
2023-08-29T21:44:53.137Z,1.60
2023-08-29T21:47:22.447Z,1.60
2023-08-29T21:49:51.662Z,1.50
2023-08-29T21:52:21.040Z,1.80
2023-08-29T21:54:50.554Z,1.50
2023-08-29T21:57:19.836Z,1.60
2023-08-29T21:59:48.903Z,2.00
2023-08-29T22:02:18.139Z,1.60
2023-08-29T22:04:50.182Z,1.80
2023-08-29T22:07:19.597Z,1.70
2023-08-29T22:09:48.752Z,1.40
2023-08-29T22:12:18.526Z,1.70
2023-08-29T22:14:47.979Z,1.60
2023-08-29T22:17:16.948Z,1.80
2023-08-29T22:19:45.939Z,1.60
2023-08-29T22:22:14.988Z,1.60
2023-08-29T22:24:44.833Z,1.60
2023-08-29T22:27:13.964Z,1.60
2023-08-29T22:29:43.187Z,1.60
2023-08-29T22:32:12.779Z,1.40
2023-08-29T22:34:43.234Z,1.50
2023-08-29T22:37:14.313Z,1.30
2023-08-29T22:39:44.317Z,1.40
2023-08-29T22:42:14.401Z,1.50
2023-08-29T22:44:47.202Z,1.80
2023-08-29T22:47:17.079Z,1.70
2023-08-29T22:49:47.327Z,1.40
2023-08-29T22:52:19.058Z,1.70
2023-08-29T22:54:48.291Z,1.40
2023-08-29T22:57:18.811Z,1.60
2023-08-29T22:59:49.253Z,1.30
2023-08-29T23:02:18.884Z,1.50
2023-08-29T23:04:48.511Z,1.60
2023-08-29T23:07:17.807Z,1.40
2023-08-29T23:09:48.460Z,1.10
2023-08-29T23:12:18.351Z,1.40
2023-08-29T23:14:48.066Z,1.30
2023-08-29T23:17:18.593Z,1.30
2023-08-29T23:19:47.997Z,1.60
2023-08-29T23:22:17.275Z,1.60
2023-08-29T23:24:47.327Z,1.60
2023-08-29T23:27:16.899Z,1.60
2023-08-29T23:29:46.541Z,1.70
2023-08-29T23:32:16.590Z,1.70
2023-08-29T23:34:47.346Z,1.50
2023-08-29T23:37:16.967Z,1.70
2023-08-29T23:39:46.509Z,1.60
2023-08-29T23:42:17.140Z,1.40
2023-08-29T23:44:46.272Z,1.50
2023-08-29T23:47:15.755Z,1.50
2023-08-29T23:49:46.498Z,1.70
2023-08-29T23:52:15.984Z,1.60
2023-08-29T23:54:45.413Z,1.70
2023-08-29T23:57:14.611Z,1.80
2023-08-29T23:59:43.920Z,1.40
